createdAt,value
2018-07-25T00:01:44.265Z,18.31
2018-07-25T00:04:13.414Z,18.30
2018-07-25T00:06:42.561Z,18.26
2018-07-25T00:09:12.008Z,18.24
2018-07-25T00:11:41.303Z,18.24
2018-07-25T00:14:10.427Z,18.24
2018-07-25T00:16:39.915Z,18.24
2018-07-25T00:19:09.205Z,18.22
2018-07-25T00:21:38.374Z,18.19
2018-07-25T00:24:07.548Z,18.16
2018-07-25T00:26:36.720Z,18.14
2018-07-25T00:29:06.108Z,18.13
2018-07-25T00:31:35.249Z,18.08
2018-07-25T00:34:04.442Z,18.02
2018-07-25T00:36:33.600Z,18.01
2018-07-25T00:39:02.795Z,17.98
2018-07-25T00:41:32.329Z,17.92
2018-07-25T00:44:01.496Z,17.78
2018-07-25T00:46:30.706Z,17.65
2018-07-25T00:48:59.912Z,17.65
2018-07-25T00:51:29.231Z,17.65
2018-07-25T00:53:58.361Z,17.64
2018-07-25T00:56:27.561Z,17.66
2018-07-25T00:58:56.932Z,17.63
2018-07-25T01:01:26.055Z,17.60
2018-07-25T01:03:55.173Z,17.56
2018-07-25T01:06:24.309Z,17.48
2018-07-25T01:08:53.464Z,17.44
2018-07-25T01:11:22.670Z,17.41
2018-07-25T01:13:51.816Z,17.37
2018-07-25T01:16:20.992Z,17.35
2018-07-25T01:18:50.157Z,17.34
2018-07-25T01:21:19.311Z,17.32
2018-07-25T01:23:48.565Z,17.32
2018-07-25T01:26:17.680Z,17.30
2018-07-25T01:28:46.836Z,17.29
2018-07-25T01:31:16.051Z,17.28
2018-07-25T01:33:45.307Z,17.28
2018-07-25T01:36:14.452Z,17.28
2018-07-25T01:38:43.598Z,17.24
2018-07-25T01:41:12.739Z,17.21
2018-07-25T01:43:42.776Z,17.21
2018-07-25T01:46:11.902Z,17.20
2018-07-25T01:48:41.057Z,17.20
2018-07-25T01:51:10.940Z,17.18
2018-07-25T01:53:40.068Z,17.17
2018-07-25T01:56:09.237Z,17.20
2018-07-25T01:58:38.423Z,17.28
2018-07-25T02:01:07.605Z,17.33
2018-07-25T02:03:36.772Z,17.33
2018-07-25T02:06:06.388Z,17.27
2018-07-25T02:08:35.540Z,17.22
2018-07-25T02:11:04.732Z,17.18
2018-07-25T02:13:33.910Z,17.09
2018-07-25T02:16:03.284Z,17.06
2018-07-25T02:18:32.626Z,17.06
2018-07-25T02:21:01.761Z,17.05
2018-07-25T02:23:30.939Z,17.03
2018-07-25T02:26:00.122Z,17.00
2018-07-25T02:28:29.304Z,16.96
2018-07-25T02:30:58.452Z,16.96
2018-07-25T02:33:32.936Z,16.93
2018-07-25T02:36:02.150Z,16.90
2018-07-25T02:38:31.304Z,16.87
2018-07-25T02:41:00.497Z,16.82
2018-07-25T02:43:29.674Z,16.81
2018-07-25T02:45:58.800Z,16.80
2018-07-25T02:48:28.040Z,16.75
2018-07-25T02:50:57.181Z,16.73
2018-07-25T02:53:26.331Z,16.70
2018-07-25T02:55:55.489Z,16.69
2018-07-25T02:58:25.671Z,16.67
2018-07-25T03:00:54.843Z,16.64
2018-07-25T03:03:24.104Z,16.63
2018-07-25T03:05:53.254Z,16.61
2018-07-25T03:08:22.415Z,16.60
2018-07-25T03:10:52.543Z,16.59
2018-07-25T03:13:22.115Z,16.59
2018-07-25T03:16:05.264Z,16.57
2018-07-25T03:18:34.404Z,16.54
2018-07-25T03:21:03.778Z,16.53
2018-07-25T03:23:33.962Z,16.54
2018-07-25T03:26:03.154Z,16.53
2018-07-25T03:28:32.437Z,16.53
2018-07-25T03:31:01.876Z,16.53
2018-07-25T03:33:31.024Z,16.51
2018-07-25T03:36:00.577Z,16.52
2018-07-25T03:38:29.900Z,16.51
2018-07-25T03:40:59.119Z,16.53
2018-07-25T03:43:28.267Z,16.55
2018-07-25T03:45:58.271Z,16.54
2018-07-25T03:48:27.493Z,16.46
2018-07-25T03:50:56.682Z,16.45
2018-07-25T03:53:25.888Z,16.50
2018-07-25T03:55:55.075Z,16.54
2018-07-25T03:58:24.215Z,16.54
2018-07-25T04:00:53.653Z,16.56
2018-07-25T04:03:22.795Z,16.60
2018-07-25T04:05:51.927Z,16.63
2018-07-25T04:08:21.159Z,16.66
2018-07-25T04:10:50.573Z,16.72
2018-07-25T04:13:19.877Z,16.75
2018-07-25T04:15:49.038Z,16.82
2018-07-25T04:18:18.169Z,16.82
2018-07-25T04:20:47.346Z,16.93
2018-07-25T04:23:16.591Z,16.99
2018-07-25T04:25:45.714Z,17.06
2018-07-25T04:28:14.865Z,17.13
2018-07-25T04:30:44.022Z,17.21
2018-07-25T04:33:13.156Z,17.26
2018-07-25T04:35:42.328Z,17.36
2018-07-25T04:38:11.476Z,17.46
2018-07-25T04:40:40.637Z,17.58
2018-07-25T04:43:09.803Z,17.66
2018-07-25T04:45:38.949Z,17.74
2018-07-25T04:48:08.138Z,17.83
2018-07-25T04:50:37.263Z,17.95
2018-07-25T04:53:06.775Z,18.08
2018-07-25T04:55:35.913Z,18.19
2018-07-25T04:58:05.094Z,18.28
2018-07-25T05:00:34.243Z,18.32
2018-07-25T05:03:03.381Z,18.40
2018-07-25T05:05:32.521Z,18.49
2018-07-25T05:08:01.710Z,18.51
2018-07-25T05:10:30.884Z,18.61
2018-07-25T05:13:00.076Z,18.71
2018-07-25T05:15:29.272Z,18.76
2018-07-25T05:17:58.495Z,18.89
2018-07-25T05:20:27.587Z,18.97
2018-07-25T05:22:57.146Z,19.02
2018-07-25T05:25:26.279Z,19.12
2018-07-25T05:27:55.395Z,19.18
2018-07-25T05:30:24.764Z,19.26
2018-07-25T05:32:55.491Z,19.36
2018-07-25T05:35:24.614Z,19.49
2018-07-25T05:37:53.797Z,19.59
2018-07-25T05:40:22.969Z,19.72
2018-07-25T05:42:52.132Z,19.76
2018-07-25T05:45:21.340Z,19.82
2018-07-25T05:47:50.461Z,19.89
2018-07-25T05:50:19.600Z,19.98
2018-07-25T05:52:48.763Z,20.07
2018-07-25T05:55:17.962Z,20.17
2018-07-25T05:57:47.120Z,20.25
2018-07-25T06:00:16.381Z,20.33
2018-07-25T06:02:45.682Z,20.46
2018-07-25T06:05:14.894Z,20.58
2018-07-25T06:07:44.052Z,20.70
2018-07-25T06:10:13.221Z,20.81
2018-07-25T06:12:42.423Z,20.93
2018-07-25T06:15:11.566Z,21.04
2018-07-25T06:17:41.010Z,20.99
2018-07-25T06:20:11.079Z,21.15
2018-07-25T06:22:40.622Z,21.25
2018-07-25T06:25:09.801Z,21.34
2018-07-25T06:27:38.975Z,21.46
2018-07-25T06:30:08.221Z,21.56
2018-07-25T06:32:37.347Z,21.56
2018-07-25T06:35:06.618Z,21.62
2018-07-25T06:37:35.756Z,21.67
2018-07-25T06:40:06.925Z,21.72
2018-07-25T06:42:36.300Z,21.84
2018-07-25T06:45:06.798Z,21.96
2018-07-25T06:47:36.300Z,22.12
2018-07-25T06:50:06.702Z,22.33
2018-07-25T06:52:35.966Z,22.48
2018-07-25T06:55:05.162Z,22.60
2018-07-25T06:57:34.315Z,22.58
2018-07-25T07:00:03.844Z,22.59
2018-07-25T07:02:32.998Z,22.56
2018-07-25T07:05:02.193Z,22.75
2018-07-25T07:07:31.349Z,22.83
2018-07-25T07:10:00.510Z,22.87
2018-07-25T07:12:29.639Z,22.97
2018-07-25T07:14:59.659Z,22.99
2018-07-25T07:17:28.863Z,23.09
2018-07-25T07:19:58.018Z,23.29
2018-07-25T07:22:27.742Z,23.54
2018-07-25T07:24:56.882Z,23.44
2018-07-25T07:27:26.079Z,23.70
2018-07-25T07:29:55.268Z,23.91
2018-07-25T07:32:24.462Z,24.06
2018-07-25T07:34:53.604Z,24.18
2018-07-25T07:37:22.779Z,24.13
2018-07-25T07:39:51.883Z,24.09
2018-07-25T07:42:21.127Z,24.10
2018-07-25T07:44:50.453Z,24.21
2018-07-25T07:47:19.648Z,24.38
2018-07-25T07:49:48.814Z,24.50
2018-07-25T07:52:18.220Z,24.47
2018-07-25T07:54:47.345Z,24.35
2018-07-25T07:57:16.521Z,24.32
2018-07-25T07:59:45.677Z,24.40
2018-07-25T08:02:14.828Z,24.60
2018-07-25T08:04:43.964Z,24.61
2018-07-25T08:07:13.851Z,24.64
2018-07-25T08:09:43.125Z,24.73
2018-07-25T08:12:12.275Z,24.75
2018-07-25T08:14:41.556Z,24.78
2018-07-25T08:17:11.361Z,24.88
2018-07-25T08:19:40.551Z,25.03
2018-07-25T08:22:09.677Z,25.19
2018-07-25T08:24:38.806Z,25.50
2018-07-25T08:27:08.254Z,25.63
2018-07-25T08:29:37.399Z,25.88
2018-07-25T08:32:06.700Z,25.97
2018-07-25T08:34:35.897Z,26.16
2018-07-25T08:37:05.085Z,26.39
2018-07-25T08:39:34.199Z,26.75
2018-07-25T08:42:03.369Z,26.74
2018-07-25T08:44:32.593Z,26.99
2018-07-25T08:47:01.752Z,27.10
2018-07-25T08:49:30.885Z,27.00
2018-07-25T08:52:00.147Z,26.91
2018-07-25T08:54:29.270Z,27.02
2018-07-25T08:56:58.413Z,27.10
2018-07-25T08:59:27.539Z,27.15
2018-07-25T09:01:56.752Z,26.96
2018-07-25T09:04:26.755Z,27.07
2018-07-25T09:06:55.962Z,27.34
2018-07-25T09:09:25.082Z,27.59
2018-07-25T09:11:54.245Z,27.70
2018-07-25T09:14:23.385Z,27.94
2018-07-25T09:16:52.675Z,28.01
2018-07-25T09:19:21.806Z,27.97
2018-07-25T09:21:50.963Z,28.12
2018-07-25T09:24:20.177Z,28.26
2018-07-25T09:26:49.353Z,28.23
2018-07-25T09:29:18.535Z,28.50
2018-07-25T09:31:47.699Z,28.53
2018-07-25T09:34:16.934Z,28.53
2018-07-25T09:36:46.027Z,28.65
2018-07-25T09:39:15.198Z,28.81
2018-07-25T09:41:44.425Z,28.62
2018-07-25T09:44:13.577Z,28.48
2018-07-25T09:46:42.800Z,28.56
2018-07-25T09:49:11.881Z,28.50
2018-07-25T09:51:41.046Z,28.25
2018-07-25T09:54:10.275Z,28.55
2018-07-25T09:56:39.467Z,28.88
2018-07-25T09:59:08.622Z,28.89
2018-07-25T10:01:37.808Z,28.97
2018-07-25T10:04:07.197Z,29.17
2018-07-25T10:06:36.349Z,29.45
2018-07-25T10:09:08.909Z,29.60
2018-07-25T10:11:38.061Z,29.68
2018-07-25T10:14:07.858Z,29.88
2018-07-25T10:16:37.058Z,30.12
2018-07-25T10:19:06.862Z,30.14
2018-07-25T10:21:36.104Z,30.00
2018-07-25T10:24:05.557Z,30.29
2018-07-25T10:26:34.706Z,30.10
2018-07-25T10:29:03.866Z,30.28
2018-07-25T10:31:33.048Z,30.12
2018-07-25T10:34:02.233Z,30.42
2018-07-25T10:36:31.353Z,30.34
2018-07-25T10:39:00.617Z,30.49
2018-07-25T10:41:29.738Z,30.58
2018-07-25T10:43:58.872Z,30.56
2018-07-25T10:46:28.222Z,30.84
2018-07-25T10:48:57.526Z,30.95
2018-07-25T10:51:26.581Z,31.10
2018-07-25T10:53:55.890Z,31.25
2018-07-25T10:56:25.332Z,31.13
2018-07-25T10:58:54.485Z,31.28
2018-07-25T11:01:23.701Z,31.01
2018-07-25T11:03:52.939Z,30.43
2018-07-25T11:06:22.058Z,30.42
2018-07-25T11:08:51.246Z,30.34
2018-07-25T11:11:20.375Z,30.73
2018-07-25T11:13:49.509Z,30.60
2018-07-25T11:16:18.753Z,30.62
2018-07-25T11:18:47.951Z,30.66
2018-07-25T11:21:17.105Z,30.99
2018-07-25T11:23:46.273Z,31.15
2018-07-25T11:26:15.479Z,31.24
2018-07-25T11:28:44.618Z,31.51
2018-07-25T11:31:15.366Z,31.66
2018-07-25T11:33:44.561Z,31.55
2018-07-25T11:36:13.737Z,31.46
2018-07-25T11:38:42.973Z,31.52
2018-07-25T11:41:12.116Z,31.79
2018-07-25T11:43:41.300Z,32.17
2018-07-25T11:46:10.495Z,32.34
2018-07-25T11:48:39.693Z,32.19
2018-07-25T11:51:09.122Z,31.90
2018-07-25T11:53:38.304Z,31.81
2018-07-25T11:56:08.038Z,31.32
2018-07-25T11:58:37.186Z,31.01
2018-07-25T12:01:06.663Z,30.84
2018-07-25T12:03:35.773Z,30.64
2018-07-25T12:06:05.065Z,30.33
2018-07-25T12:08:34.199Z,29.84
2018-07-25T12:11:03.472Z,29.54
2018-07-25T12:13:32.723Z,29.37
2018-07-25T12:16:01.870Z,28.98
2018-07-25T12:18:31.061Z,28.77
2018-07-25T12:21:00.207Z,28.63
2018-07-25T12:23:29.366Z,28.35
2018-07-25T12:25:58.494Z,27.96
2018-07-25T12:28:27.639Z,27.69
2018-07-25T12:30:56.829Z,26.36
2018-07-25T12:33:25.995Z,26.20
2018-07-25T12:35:55.261Z,26.18
2018-07-25T12:38:24.477Z,26.72
2018-07-25T12:40:54.098Z,27.10
2018-07-25T12:43:23.224Z,27.68
2018-07-25T12:45:52.398Z,28.19
2018-07-25T12:48:22.422Z,28.31
2018-07-25T12:50:51.607Z,28.31
2018-07-25T12:53:20.902Z,28.46
2018-07-25T12:55:50.025Z,28.13
2018-07-25T12:58:19.343Z,28.05
2018-07-25T13:00:48.593Z,28.04
2018-07-25T13:03:17.745Z,27.92
2018-07-25T13:05:46.950Z,27.76
2018-07-25T13:08:16.184Z,27.65
2018-07-25T13:10:45.357Z,27.58
2018-07-25T13:13:14.534Z,27.66
2018-07-25T13:15:43.748Z,27.67
2018-07-25T13:18:13.047Z,27.65
2018-07-25T13:20:42.251Z,27.75
2018-07-25T13:23:11.719Z,28.10
2018-07-25T13:25:40.874Z,28.66
2018-07-25T13:28:10.054Z,28.92
2018-07-25T13:30:39.234Z,28.98
2018-07-25T13:33:08.572Z,28.90
2018-07-25T13:35:37.776Z,29.17
2018-07-25T13:38:07.141Z,29.04
2018-07-25T13:40:36.310Z,28.77
2018-07-25T13:43:05.906Z,28.62
2018-07-25T13:45:35.204Z,28.49
2018-07-25T13:48:04.284Z,28.30
2018-07-25T13:50:33.482Z,28.16
2018-07-25T13:53:02.857Z,27.99
2018-07-25T13:55:32.047Z,27.81
2018-07-25T13:58:02.598Z,27.71
2018-07-25T14:00:31.790Z,27.67
2018-07-25T14:03:01.330Z,27.68
2018-07-25T14:05:30.506Z,27.65
2018-07-25T14:08:00.041Z,27.62
2018-07-25T14:10:29.249Z,27.62
2018-07-25T14:12:58.437Z,27.63
2018-07-25T14:15:27.669Z,27.70
2018-07-25T14:17:56.972Z,28.17
2018-07-25T14:20:26.066Z,28.57
2018-07-25T14:22:55.218Z,28.75
2018-07-25T14:25:24.409Z,28.57
2018-07-25T14:27:53.626Z,28.40
2018-07-25T14:30:23.024Z,28.60
2018-07-25T14:32:52.104Z,28.92
2018-07-25T14:35:21.283Z,28.99
2018-07-25T14:37:50.620Z,28.89
2018-07-25T14:40:19.966Z,28.80
2018-07-25T14:42:49.118Z,28.92
2018-07-25T14:45:18.300Z,28.86
2018-07-25T14:47:47.477Z,28.85
2018-07-25T14:50:17.209Z,28.75
2018-07-25T14:52:46.415Z,28.82
2018-07-25T14:55:15.576Z,28.88
2018-07-25T14:57:44.789Z,28.86
2018-07-25T15:00:13.989Z,28.86
2018-07-25T15:02:43.186Z,28.97
2018-07-25T15:05:12.342Z,28.91
2018-07-25T15:07:42.147Z,28.91
2018-07-25T15:10:11.379Z,29.02
2018-07-25T15:12:42.507Z,29.17
2018-07-25T15:15:12.589Z,29.19
2018-07-25T15:17:41.793Z,29.28
2018-07-25T15:20:11.308Z,29.32
2018-07-25T15:22:40.601Z,29.09
2018-07-25T15:25:10.205Z,28.92
2018-07-25T15:27:39.347Z,28.93
2018-07-25T15:30:09.748Z,28.93
2018-07-25T15:32:38.930Z,28.80
2018-07-25T15:35:08.835Z,28.66
2018-07-25T15:37:38.143Z,28.43
2018-07-25T15:40:07.915Z,28.12
2018-07-25T15:42:37.086Z,27.86
2018-07-25T15:45:06.583Z,27.68
2018-07-25T15:47:35.756Z,27.66
2018-07-25T15:50:05.939Z,27.74
2018-07-25T15:52:35.154Z,27.70
2018-07-25T15:55:04.355Z,27.65
2018-07-25T15:57:33.694Z,27.65
2018-07-25T16:00:03.026Z,27.71
2018-07-25T16:02:32.251Z,27.83
2018-07-25T16:05:01.404Z,27.94
2018-07-25T16:07:30.585Z,27.91
2018-07-25T16:09:59.787Z,27.85
2018-07-25T16:12:28.896Z,27.72
2018-07-25T16:14:58.129Z,27.72
2018-07-25T16:17:27.293Z,27.74
2018-07-25T16:19:56.484Z,27.75
2018-07-25T16:22:25.648Z,27.76
2018-07-25T16:24:54.834Z,27.75
2018-07-25T16:27:24.075Z,27.76
2018-07-25T16:29:53.313Z,27.78
2018-07-25T16:32:22.450Z,27.72
2018-07-25T16:34:51.588Z,27.67
2018-07-25T16:37:20.815Z,27.64
2018-07-25T16:39:49.973Z,27.51
2018-07-25T16:42:19.483Z,27.49
2018-07-25T16:44:48.664Z,27.41
2018-07-25T16:47:17.841Z,27.41
2018-07-25T16:49:47.008Z,27.35
2018-07-25T16:52:16.173Z,27.23
2018-07-25T16:54:45.731Z,27.10
2018-07-25T16:57:14.897Z,27.03
2018-07-25T16:59:44.100Z,26.96
2018-07-25T17:02:13.269Z,26.96
2018-07-25T17:04:42.437Z,27.01
2018-07-25T17:07:11.763Z,27.03
2018-07-25T17:09:40.921Z,27.05
2018-07-25T17:12:10.149Z,26.98
2018-07-25T17:14:39.830Z,26.90
2018-07-25T17:17:09.302Z,26.84
2018-07-25T17:19:38.499Z,26.85
2018-07-25T17:22:07.660Z,26.78
2018-07-25T17:24:36.850Z,26.68
2018-07-25T17:27:06.210Z,26.58
2018-07-25T17:29:35.372Z,26.51
2018-07-25T17:32:04.541Z,26.44
2018-07-25T17:34:33.697Z,26.31
2018-07-25T17:37:02.899Z,26.21
2018-07-25T17:39:32.074Z,26.09
2018-07-25T17:42:01.318Z,25.99
2018-07-25T17:44:30.485Z,25.87
2018-07-25T17:46:59.645Z,25.52
2018-07-25T17:49:28.815Z,25.24
2018-07-25T17:51:58.010Z,24.95
2018-07-25T17:54:27.169Z,24.91
2018-07-25T17:56:56.369Z,24.84
2018-07-25T17:59:25.469Z,24.69
2018-07-25T18:01:54.633Z,24.64
2018-07-25T18:04:24.846Z,24.51
2018-07-25T18:06:54.124Z,24.49
2018-07-25T18:09:23.261Z,24.37
2018-07-25T18:11:52.533Z,24.32
2018-07-25T18:14:23.191Z,24.33
2018-07-25T18:16:52.386Z,24.24
2018-07-25T18:19:21.592Z,24.22
2018-07-25T18:21:50.820Z,24.20
2018-07-25T18:24:20.013Z,24.16
2018-07-25T18:26:52.407Z,24.12
2018-07-25T18:29:21.651Z,24.03
2018-07-25T18:31:50.748Z,23.75
2018-07-25T18:34:19.958Z,23.65
2018-07-25T18:36:49.496Z,23.43
2018-07-25T18:39:18.652Z,23.25
2018-07-25T18:41:47.887Z,23.18
2018-07-25T18:44:17.927Z,23.06
2018-07-25T18:46:47.139Z,22.89
2018-07-25T18:49:16.305Z,22.82
2018-07-25T18:51:45.521Z,22.70
2018-07-25T18:54:14.710Z,22.61
2018-07-25T18:56:43.898Z,22.52
2018-07-25T18:59:13.107Z,22.43
2018-07-25T19:01:42.351Z,22.37
2018-07-25T19:04:11.476Z,22.33
2018-07-25T19:06:40.685Z,22.28
2018-07-25T19:09:13.922Z,22.20
2018-07-25T19:11:43.142Z,22.09
2018-07-25T19:14:17.567Z,22.02
2018-07-25T19:16:46.753Z,21.93
2018-07-25T19:19:16.012Z,21.91
2018-07-25T19:21:45.198Z,21.85
2018-07-25T19:24:14.367Z,21.83
2018-07-25T19:26:43.497Z,21.84
2018-07-25T19:29:12.701Z,21.84
2018-07-25T19:31:41.849Z,21.82
2018-07-25T19:34:11.294Z,21.78
2018-07-25T19:36:40.462Z,21.75
2018-07-25T19:39:10.650Z,21.66
2018-07-25T19:41:39.815Z,21.59
2018-07-25T19:44:09.075Z,21.52
2018-07-25T19:46:38.216Z,21.51
2018-07-25T19:49:07.536Z,21.47
2018-07-25T19:51:36.761Z,21.40
2018-07-25T19:54:06.083Z,21.36
2018-07-25T19:56:35.263Z,21.31
2018-07-25T19:59:04.538Z,21.25
2018-07-25T20:01:33.795Z,21.18
2018-07-25T20:04:03.083Z,21.14
2018-07-25T20:06:32.306Z,21.18
2018-07-25T20:09:01.518Z,21.07
2018-07-25T20:11:30.786Z,20.98
2018-07-25T20:14:05.218Z,21.01
2018-07-25T20:16:34.331Z,21.01
2018-07-25T20:19:03.502Z,20.99
2018-07-25T20:21:33.807Z,20.94
2018-07-25T20:24:03.266Z,20.89
2018-07-25T20:26:34.556Z,20.81
2018-07-25T20:29:03.726Z,20.72
2018-07-25T20:31:32.885Z,20.63
2018-07-25T20:34:02.115Z,20.58
2018-07-25T20:36:31.265Z,20.55
2018-07-25T20:39:00.528Z,20.51
2018-07-25T20:41:29.687Z,20.45
2018-07-25T20:43:58.840Z,20.40
2018-07-25T20:46:27.974Z,20.35
2018-07-25T20:48:57.119Z,20.35
2018-07-25T20:51:26.390Z,20.34
2018-07-25T20:53:55.744Z,20.33
2018-07-25T20:56:24.932Z,20.31
2018-07-25T20:58:54.086Z,20.24
2018-07-25T21:01:23.238Z,20.16
2018-07-25T21:03:52.392Z,20.08
2018-07-25T21:06:21.545Z,20.01
2018-07-25T21:08:50.674Z,19.98
2018-07-25T21:11:20.022Z,19.95
2018-07-25T21:13:49.176Z,19.94
2018-07-25T21:16:18.581Z,19.94
2018-07-25T21:18:47.900Z,19.94
2018-07-25T21:21:17.265Z,19.92
2018-07-25T21:23:46.512Z,19.92
2018-07-25T21:26:15.819Z,19.90
2018-07-25T21:28:44.969Z,19.88
2018-07-25T21:31:14.123Z,19.89
2018-07-25T21:33:43.309Z,19.92
2018-07-25T21:36:12.592Z,19.95
2018-07-25T21:38:41.816Z,19.99
2018-07-25T21:41:11.352Z,20.05
2018-07-25T21:43:40.514Z,20.19
2018-07-25T21:46:09.662Z,20.28
2018-07-25T21:48:38.822Z,20.34
2018-07-25T21:51:08.111Z,20.37
2018-07-25T21:53:37.298Z,20.37
2018-07-25T21:56:06.569Z,20.39
2018-07-25T21:58:35.754Z,20.41
2018-07-25T22:01:13.517Z,20.42
2018-07-25T22:03:42.757Z,20.43
2018-07-25T22:06:11.849Z,20.41
2018-07-25T22:08:40.997Z,20.39
2018-07-25T22:11:10.174Z,20.38
2018-07-25T22:13:43.596Z,20.35
2018-07-25T22:16:13.133Z,20.35
2018-07-25T22:18:42.418Z,20.32
2018-07-25T22:21:11.838Z,20.29
2018-07-25T22:23:41.060Z,20.26
2018-07-25T22:26:10.200Z,20.26
2018-07-25T22:28:39.564Z,20.24
2018-07-25T22:31:08.957Z,20.20
2018-07-25T22:33:38.120Z,20.15
2018-07-25T22:36:07.895Z,20.13
2018-07-25T22:38:37.004Z,20.14
2018-07-25T22:41:06.616Z,20.12
2018-07-25T22:43:35.989Z,20.15
2018-07-25T22:46:05.284Z,20.10
2018-07-25T22:48:35.193Z,20.08
2018-07-25T22:51:04.343Z,20.06
2018-07-25T22:53:33.500Z,20.05
2018-07-25T22:56:02.855Z,20.01
2018-07-25T22:58:32.014Z,19.96
2018-07-25T23:01:01.175Z,19.91
2018-07-25T23:03:30.322Z,19.84
2018-07-25T23:05:59.511Z,19.80
2018-07-25T23:08:30.291Z,19.80
2018-07-25T23:10:59.441Z,19.79
2018-07-25T23:13:28.616Z,19.80
2018-07-25T23:15:58.035Z,19.80
2018-07-25T23:18:27.249Z,19.78
2018-07-25T23:20:56.419Z,19.76
2018-07-25T23:23:25.585Z,19.73
2018-07-25T23:25:54.714Z,19.71
2018-07-25T23:28:23.916Z,19.71
2018-07-25T23:30:53.118Z,19.69
2018-07-25T23:33:22.430Z,19.68
2018-07-25T23:35:51.599Z,19.64
2018-07-25T23:38:20.750Z,19.63
2018-07-25T23:40:50.345Z,19.60
2018-07-25T23:43:19.528Z,19.57
2018-07-25T23:45:48.688Z,19.53
2018-07-25T23:48:17.888Z,19.52
2018-07-25T23:50:47.177Z,19.53
2018-07-25T23:53:16.324Z,19.51
2018-07-25T23:55:45.510Z,19.48
2018-07-25T23:58:14.668Z,19.45
